createdAt,value
2017-10-17T00:00:20.861Z,10.18
2017-10-17T00:02:47.184Z,10.18
2017-10-17T00:05:13.525Z,10.18
2017-10-17T00:07:39.898Z,10.19
2017-10-17T00:10:06.310Z,10.17
2017-10-17T00:12:32.638Z,10.10
2017-10-17T00:14:58.969Z,9.99
2017-10-17T00:17:25.323Z,9.95
2017-10-17T00:19:51.605Z,9.89
2017-10-17T00:22:17.968Z,9.86
2017-10-17T00:24:44.310Z,9.92
2017-10-17T00:27:10.642Z,9.91
2017-10-17T00:29:36.963Z,9.88
2017-10-17T00:32:03.317Z,9.81
2017-10-17T00:34:29.623Z,9.73
2017-10-17T00:36:55.932Z,9.72
2017-10-17T00:39:22.261Z,9.67
2017-10-17T00:41:48.618Z,9.51
2017-10-17T00:44:14.951Z,9.52
2017-10-17T00:46:41.287Z,9.46
2017-10-17T00:49:07.623Z,9.50
2017-10-17T00:51:33.936Z,9.43
2017-10-17T00:54:00.284Z,9.35
2017-10-17T00:56:26.613Z,9.32
2017-10-17T00:58:52.956Z,9.34
2017-10-17T01:01:19.579Z,9.45
2017-10-17T01:03:45.935Z,9.47
2017-10-17T01:06:12.246Z,9.45
2017-10-17T01:08:38.596Z,9.44
2017-10-17T01:11:04.925Z,9.47
2017-10-17T01:13:31.257Z,9.55
2017-10-17T01:15:57.557Z,9.59
2017-10-17T01:18:23.909Z,9.63
2017-10-17T01:20:50.240Z,9.60
2017-10-17T01:23:16.560Z,9.55
2017-10-17T01:25:42.896Z,9.54
2017-10-17T01:28:09.238Z,9.52
2017-10-17T01:30:35.562Z,9.52
2017-10-17T01:33:01.895Z,9.48
2017-10-17T01:35:28.243Z,9.42
2017-10-17T01:37:54.507Z,9.43
2017-10-17T01:40:20.789Z,9.35
2017-10-17T01:42:47.117Z,9.24
2017-10-17T01:45:13.449Z,9.21
2017-10-17T01:47:39.786Z,9.16
2017-10-17T01:50:06.128Z,9.09
2017-10-17T01:52:32.380Z,9.11
2017-10-17T01:54:58.680Z,9.13
2017-10-17T01:57:24.976Z,9.07
2017-10-17T01:59:51.454Z,8.94
2017-10-17T02:02:17.765Z,8.92
2017-10-17T02:04:44.119Z,8.91
2017-10-17T02:07:10.443Z,8.91
2017-10-17T02:09:36.781Z,8.85
2017-10-17T02:12:03.107Z,8.94
2017-10-17T02:14:29.444Z,8.94
2017-10-17T02:16:55.785Z,8.90
2017-10-17T02:19:22.098Z,8.90
2017-10-17T02:21:48.451Z,8.92
2017-10-17T02:24:14.864Z,8.93
2017-10-17T02:26:41.194Z,8.94
2017-10-17T02:29:07.533Z,8.85
2017-10-17T02:38:18.046Z,8.48
2017-10-17T02:40:44.393Z,8.46
2017-10-17T02:43:10.712Z,8.48
2017-10-17T02:45:37.076Z,8.41
2017-10-17T02:48:03.388Z,8.44
2017-10-17T02:50:29.708Z,8.43
2017-10-17T02:52:56.054Z,8.43
2017-10-17T02:55:22.384Z,8.36
2017-10-17T02:57:48.691Z,8.37
2017-10-17T03:00:15.048Z,8.34
2017-10-17T03:02:41.374Z,8.27
2017-10-17T03:05:07.703Z,8.25
2017-10-17T03:07:34.049Z,8.25
2017-10-17T03:10:00.368Z,8.27
2017-10-17T03:12:26.692Z,8.27
2017-10-17T03:14:53.030Z,8.27
2017-10-17T03:17:19.396Z,8.24
2017-10-17T03:19:45.873Z,8.15
2017-10-17T03:31:05.750Z,7.97
2017-10-17T03:33:32.588Z,8.00
2017-10-17T03:35:58.871Z,8.00
2017-10-17T03:38:25.181Z,8.09
2017-10-17T03:40:51.501Z,8.12
2017-10-17T03:43:18.056Z,8.12
2017-10-17T03:45:44.435Z,8.15
2017-10-17T03:48:10.805Z,8.18
2017-10-17T03:50:37.145Z,8.26
2017-10-17T03:53:03.454Z,8.39
2017-10-17T03:55:29.786Z,8.33
2017-10-17T03:57:56.104Z,8.32
2017-10-17T04:09:16.704Z,8.08
2017-10-17T04:11:43.011Z,8.06
2017-10-17T04:14:09.360Z,8.03
2017-10-17T04:16:35.665Z,7.96
2017-10-17T04:19:02.012Z,7.91
2017-10-17T04:21:28.329Z,7.88
2017-10-17T04:23:54.662Z,7.82
2017-10-17T04:26:21.009Z,7.78
2017-10-17T04:28:47.334Z,7.75
2017-10-17T04:31:13.663Z,7.79
2017-10-17T04:33:40.003Z,7.81
2017-10-17T04:36:06.344Z,7.78
2017-10-17T04:38:32.674Z,7.67
2017-10-17T04:40:59.007Z,7.72
2017-10-17T04:43:25.310Z,7.73
2017-10-17T04:45:51.662Z,7.77
2017-10-17T04:48:17.984Z,7.76
2017-10-17T04:50:46.281Z,7.79
2017-10-17T04:53:12.594Z,7.82
2017-10-17T04:55:38.935Z,7.91
2017-10-17T04:58:05.278Z,8.02
2017-10-17T05:00:31.601Z,8.11
2017-10-17T05:02:57.911Z,8.20
2017-10-17T05:05:24.272Z,8.38
2017-10-17T05:07:50.772Z,8.66
2017-10-17T05:10:17.148Z,8.80
2017-10-17T05:12:43.478Z,8.99
2017-10-17T05:15:09.838Z,9.14
2017-10-17T05:17:36.193Z,9.26
2017-10-17T05:20:02.587Z,9.52
2017-10-17T05:22:28.898Z,10.75
2017-10-17T05:24:55.252Z,12.28
2017-10-17T05:27:21.687Z,13.60
2017-10-17T05:29:48.086Z,14.73
2017-10-17T05:32:14.410Z,15.86
2017-10-17T05:34:40.807Z,16.91
2017-10-17T05:37:07.109Z,17.45
2017-10-17T05:39:33.422Z,18.29
2017-10-17T05:41:59.765Z,18.87
2017-10-17T05:44:26.099Z,19.91
2017-10-17T05:46:52.482Z,20.78
2017-10-17T05:49:18.900Z,20.22
2017-10-17T05:51:45.182Z,19.30
2017-10-17T05:54:11.499Z,18.94
2017-10-17T05:56:37.845Z,18.74
2017-10-17T05:59:04.854Z,18.80
2017-10-17T06:26:54.521Z,21.38
2017-10-17T06:29:28.962Z,22.31
2017-10-17T06:31:55.484Z,23.44
2017-10-17T10:57:20.480Z,31.62
2017-10-17T11:15:28.961Z,31.03
2017-10-17T11:18:04.836Z,30.81
2017-10-17T14:36:22.000Z,33.82
2017-10-17T14:53:47.668Z,33.17
2017-10-17T14:56:23.574Z,32.90
2017-10-17T15:04:06.766Z,30.62
2017-10-17T15:09:14.731Z,27.98
2017-10-17T15:11:41.252Z,26.59
2017-10-17T15:14:07.761Z,25.83
2017-10-17T15:16:34.294Z,25.22
2017-10-17T15:19:15.143Z,24.72
2017-10-17T15:21:41.830Z,24.32
2017-10-17T15:24:08.292Z,23.93
2017-10-17T15:26:35.509Z,23.61
2017-10-17T15:29:01.905Z,23.26
2017-10-17T15:31:29.142Z,22.94
2017-10-17T15:33:55.605Z,22.42
2017-10-17T15:36:22.590Z,22.21
2017-10-17T15:41:19.387Z,21.85
2017-10-17T15:46:25.109Z,21.42
2017-10-17T15:48:51.746Z,21.24
2017-10-17T16:22:57.530Z,18.90
2017-10-17T16:25:26.447Z,18.80
2017-10-17T16:40:12.809Z,18.22
2017-10-17T16:45:36.785Z,18.18
2017-10-17T16:48:05.114Z,18.13
2017-10-17T16:50:32.939Z,18.04
2017-10-17T16:53:00.043Z,18.05
2017-10-17T17:09:16.584Z,17.16
2017-10-17T17:11:44.312Z,17.07
2017-10-17T17:16:41.172Z,17.03
2017-10-17T17:19:07.683Z,16.95
2017-10-17T17:21:47.048Z,16.88
2017-10-17T17:24:13.848Z,16.67
2017-10-17T17:26:40.484Z,16.50
2017-10-17T17:29:10.093Z,16.42
2017-10-17T17:31:37.000Z,16.51
2017-10-17T17:34:05.341Z,16.49
2017-10-17T17:44:21.196Z,16.09
2017-10-17T17:46:51.891Z,15.99
2017-10-17T17:49:22.010Z,15.86
2017-10-17T17:51:49.612Z,15.82
2017-10-17T18:28:13.708Z,14.80
2017-10-17T18:33:21.428Z,14.56
2017-10-17T18:35:50.918Z,14.48
2017-10-17T18:42:45.332Z,14.32
2017-10-17T18:45:11.843Z,14.27
2017-10-17T18:48:18.140Z,14.27
2017-10-17T18:50:47.955Z,14.26
2017-10-17T19:25:58.704Z,13.14
2017-10-17T19:29:46.626Z,13.16
2017-10-17T19:46:56.713Z,13.04
2017-10-17T19:49:25.460Z,13.03
2017-10-17T19:51:52.971Z,13.01
2017-10-17T19:54:21.492Z,13.02
2017-10-17T19:56:52.904Z,13.11
2017-10-17T19:59:20.826Z,13.05
2017-10-17T20:02:36.918Z,12.98
2017-10-17T20:05:05.323Z,12.82
2017-10-17T20:07:36.486Z,12.76
2017-10-17T20:10:06.907Z,12.71
2017-10-17T20:12:52.816Z,12.69
2017-10-17T20:15:21.418Z,12.76
2017-10-17T20:17:48.249Z,12.74
2017-10-17T20:20:17.485Z,12.64
2017-10-17T20:35:47.146Z,12.12
2017-10-17T20:38:19.825Z,12.02
2017-10-17T20:41:10.836Z,11.97
2017-10-17T20:43:41.612Z,11.90
2017-10-17T20:46:48.965Z,11.98
2017-10-17T20:49:18.899Z,11.98
2017-10-17T20:52:00.938Z,11.84
2017-10-17T20:54:35.649Z,11.83
2017-10-17T20:57:17.036Z,11.77
2017-10-17T20:59:47.789Z,11.76
2017-10-17T21:02:20.329Z,11.80
2017-10-17T21:04:48.562Z,11.71
2017-10-17T21:09:54.314Z,11.78
2017-10-17T21:12:22.191Z,11.76
2017-10-17T21:14:48.891Z,11.76
2017-10-17T21:17:15.300Z,11.77
2017-10-17T21:19:41.855Z,11.77
2017-10-17T21:22:27.174Z,11.65
2017-10-17T21:24:53.891Z,11.55
2017-10-17T21:27:25.335Z,11.58
2017-10-17T21:29:52.108Z,11.60
2017-10-17T21:32:20.689Z,11.55
2017-10-17T21:34:47.497Z,11.46
2017-10-17T21:37:15.198Z,11.43
2017-10-17T21:39:42.472Z,11.46
2017-10-17T21:42:10.231Z,11.44
2017-10-17T21:44:37.483Z,11.48
2017-10-17T21:47:07.233Z,11.43
2017-10-17T21:49:33.893Z,11.51
2017-10-17T21:52:01.586Z,11.45
2017-10-17T21:54:31.803Z,11.36
2017-10-17T21:57:08.025Z,11.31
2017-10-17T21:59:37.504Z,11.33
2017-10-17T22:02:04.140Z,11.29
2017-10-17T22:04:31.614Z,11.20
2017-10-17T22:08:19.097Z,11.14
2017-10-17T22:10:47.811Z,11.04
2017-10-17T22:13:19.504Z,10.95
2017-10-17T22:16:25.117Z,10.78
2017-10-17T22:18:52.782Z,10.83
2017-10-17T22:21:38.087Z,10.76
2017-10-17T22:24:04.908Z,10.66
2017-10-17T22:26:35.790Z,10.68
2017-10-17T22:29:03.049Z,10.73
2017-10-17T22:31:31.293Z,10.70
2017-10-17T22:33:59.890Z,10.59
2017-10-17T22:36:37.981Z,10.55
2017-10-17T22:39:05.621Z,10.53
2017-10-17T22:41:32.147Z,10.47
2017-10-17T22:43:59.732Z,10.34
2017-10-17T22:46:26.576Z,10.32
2017-10-17T22:48:53.084Z,10.33
2017-10-17T22:51:31.386Z,10.35
2017-10-17T22:53:58.894Z,10.28
2017-10-17T22:56:26.537Z,10.28
2017-10-17T22:58:53.443Z,10.25
2017-10-17T23:01:21.392Z,10.29
2017-10-17T23:03:47.779Z,10.30
2017-10-17T23:16:47.465Z,10.14
